Ana Sayfa
METAR-TAF:

METAR-TAF

Havaalanları :

Natchitoches Regional Airport

Natchitoches, Louisiana, Amerika Birleşik Devletleri

Enlem: 31-44-09N, Boylam: 093-05-57W, yükseklik: 37 m

Güncel hava durumu gözlemi

Rapor saat 07:35 UTC de 39 dakika önce yapıldı.
Sakin rüzgar
Sıcaklık 25°C
Nem 100%
Basınç 1014 hPa
Görüş mesafesi: 16.1 km
Açık gökyüzü

METAR: KIER 250735Z AUTO 00000KT 10SM CLR 25/25 A2993 RMK AO2 T02510251

Saat: 03:14 (08:14 UTC)


TAF: eksik

4.000'den fazla havaalanı için hava durumu gözlemleri ve tahminleri (METAR ve TAF raporları).

Kullanılabilir istasyonlar harita üzerinde sarı ve kırmızı noktalarla gösterilir.

İstasyonun adını görmek için fareyi noktanın üzerinde gezdirin.

Sonrasında hava gözlem ve tahminlerini görmek için tıklayın.

Haritayı değiştirmek için: yaklaştırmak için siyah artı işaretli yeşil düğmeye ve uzaklaştırmak için de eksi işaretli düğmeye hızla tıklayın; bitişik haritalar için yeşil okları kullanın.


METAR-TAF: